createdAt,value
2019-02-26T00:01:55.233Z,92.70
2019-02-26T00:04:27.309Z,92.80
2019-02-26T00:07:00.379Z,92.40
2019-02-26T00:09:34.642Z,92.40
2019-02-26T00:12:03.570Z,92.40
2019-02-26T00:14:34.265Z,92.80
2019-02-26T00:17:08.658Z,93.60
2019-02-26T00:19:37.673Z,93.80
2019-02-26T00:22:09.581Z,93.70
2019-02-26T00:24:42.651Z,93.70
2019-02-26T00:27:13.273Z,93.70
2019-02-26T00:29:44.715Z,93.60
2019-02-26T00:32:18.393Z,93.50
2019-02-26T00:34:48.883Z,93.30
2019-02-26T00:37:22.150Z,93.20
2019-02-26T00:39:54.505Z,93.20
2019-02-26T00:42:28.664Z,93.20
2019-02-26T00:45:01.031Z,93.00
2019-02-26T00:47:33.833Z,92.90
2019-02-26T00:50:05.648Z,93.00
2019-02-26T00:52:39.149Z,93.40
2019-02-26T00:55:09.742Z,93.40
2019-02-26T00:57:41.098Z,93.50
2019-02-26T01:00:14.465Z,93.40
2019-02-26T01:02:45.167Z,93.40
2019-02-26T01:05:16.849Z,93.70
2019-02-26T01:07:50.222Z,93.60
2019-02-26T01:10:21.214Z,93.20
2019-02-26T01:12:52.463Z,93.40
2019-02-26T01:15:23.218Z,93.60
2019-02-26T01:17:54.967Z,93.40
2019-02-26T01:20:27.477Z,93.70
2019-02-26T01:22:58.767Z,94.10
2019-02-26T01:25:29.502Z,94.00
2019-02-26T01:28:00.572Z,93.90
2019-02-26T01:30:33.662Z,93.80
2019-02-26T01:33:05.471Z,93.60
2019-02-26T01:35:37.762Z,93.50
2019-02-26T01:38:08.634Z,93.50
2019-02-26T01:40:41.807Z,94.10
2019-02-26T01:43:11.802Z,94.70
2019-02-26T01:45:44.044Z,95.10
2019-02-26T01:48:16.666Z,95.40
2019-02-26T02:09:11.301Z,93.40
2019-02-26T02:11:40.768Z,93.40
2019-02-26T02:14:12.727Z,93.50
2019-02-26T02:16:44.130Z,93.50
2019-02-26T02:19:18.090Z,93.70
2019-02-26T02:21:49.327Z,94.20
2019-02-26T02:24:20.604Z,93.80
2019-02-26T02:26:53.556Z,93.70
2019-02-26T02:29:28.095Z,93.70
2019-02-26T02:31:59.548Z,93.60
2019-02-26T02:34:32.645Z,93.90
2019-02-26T02:37:02.334Z,94.10
2019-02-26T02:39:33.153Z,94.00
2019-02-26T02:42:03.835Z,94.00
2019-02-26T02:44:34.622Z,94.30
2019-02-26T02:47:06.774Z,94.50
2019-02-26T02:49:39.892Z,94.50
2019-02-26T02:52:11.813Z,94.50
2019-02-26T02:54:47.014Z,94.80
2019-02-26T02:57:17.069Z,94.80
2019-02-26T02:59:47.894Z,94.90
2019-02-26T03:02:20.585Z,95.00
2019-02-26T03:04:51.062Z,94.90
2019-02-26T03:07:23.677Z,94.80
2019-02-26T03:09:54.264Z,94.70
2019-02-26T03:12:25.033Z,94.80
2019-02-26T03:14:56.363Z,94.90
2019-02-26T03:17:28.318Z,95.20
2019-02-26T03:20:01.660Z,95.20
2019-02-26T03:22:33.363Z,94.90
2019-02-26T03:25:04.139Z,94.80
2019-02-26T03:27:36.733Z,94.60
2019-02-26T03:30:08.550Z,94.60
2019-02-26T03:32:41.382Z,94.90
2019-02-26T03:35:13.331Z,95.20
2019-02-26T03:37:44.687Z,95.20
2019-02-26T03:40:15.460Z,95.20
2019-02-26T03:42:46.400Z,95.20
2019-02-26T03:45:23.597Z,95.40
2019-02-26T03:47:49.741Z,95.50
2019-02-26T03:50:20.579Z,95.50
2019-02-26T03:52:51.358Z,95.60
2019-02-26T03:55:23.636Z,95.50
2019-02-26T03:57:56.556Z,95.60
2019-02-26T04:00:26.794Z,95.60
2019-02-26T04:02:57.606Z,95.90
2019-02-26T04:05:28.345Z,96.20
2019-02-26T04:08:01.576Z,96.20
2019-02-26T04:10:31.625Z,96.40
2019-02-26T04:13:02.405Z,96.40
2019-02-26T04:15:35.510Z,96.30
2019-02-26T04:18:05.706Z,96.20
2019-02-26T04:20:36.473Z,96.00
2019-02-26T04:23:08.972Z,95.80
2019-02-26T04:25:49.544Z,95.80
2019-02-26T04:28:47.734Z,95.80
2019-02-26T04:31:43.589Z,95.80
2019-02-26T04:34:48.489Z,95.90
2019-02-26T04:37:43.834Z,96.10
2019-02-26T04:41:03.038Z,96.20
2019-02-26T04:44:12.099Z,96.20
2019-02-26T04:46:57.141Z,96.10
2019-02-26T04:49:30.162Z,96.00
2019-02-26T04:52:02.940Z,95.80
2019-02-26T04:54:36.828Z,95.90
2019-02-26T04:57:06.439Z,95.90
2019-02-26T04:59:41.308Z,96.00
2019-02-26T05:02:11.088Z,96.10
2019-02-26T05:04:42.993Z,96.00
2019-02-26T05:07:16.286Z,96.00
2019-02-26T05:09:47.533Z,96.00
2019-02-26T05:12:19.233Z,96.10
2019-02-26T05:14:49.994Z,96.10
2019-02-26T05:17:21.833Z,96.10
2019-02-26T05:19:53.315Z,96.10
2019-02-26T05:22:25.712Z,96.10
2019-02-26T05:24:56.822Z,96.10
2019-02-26T05:27:27.607Z,96.20
2019-02-26T05:30:00.261Z,96.20
2019-02-26T05:32:33.400Z,96.20
2019-02-26T05:35:05.388Z,96.10
2019-02-26T05:37:40.317Z,96.00
2019-02-26T05:40:10.462Z,96.00
2019-02-26T05:42:41.316Z,96.10
2019-02-26T05:45:13.371Z,96.10
2019-02-26T05:47:46.064Z,96.10
2019-02-26T05:50:16.872Z,96.20
2019-02-26T05:52:50.402Z,96.30
2019-02-26T05:55:23.679Z,96.40
2019-02-26T05:57:53.535Z,96.30
2019-02-26T06:00:26.332Z,96.50
2019-02-26T06:02:57.658Z,96.50
2019-02-26T06:05:28.471Z,96.40
2019-02-26T06:07:59.362Z,96.50
2019-02-26T06:10:32.528Z,96.60
2019-02-26T06:13:04.840Z,96.60
2019-02-26T06:15:35.205Z,96.70
2019-02-26T06:18:06.031Z,96.70
2019-02-26T06:20:37.880Z,96.70
2019-02-26T06:23:08.675Z,96.70
2019-02-26T06:25:39.450Z,96.80
2019-02-26T06:28:12.772Z,96.90
2019-02-26T06:30:42.552Z,96.80
2019-02-26T06:33:14.062Z,96.90
2019-02-26T06:35:45.786Z,96.90
2019-02-26T06:38:16.538Z,97.00
2019-02-26T06:40:49.131Z,97.00
2019-02-26T06:43:19.932Z,97.00
2019-02-26T06:45:50.696Z,96.90
2019-02-26T06:48:24.621Z,96.90
2019-02-26T06:50:55.657Z,96.90
2019-02-26T06:53:26.362Z,96.80
2019-02-26T06:55:58.590Z,96.80
2019-02-26T06:58:29.746Z,96.70
2019-02-26T07:01:00.754Z,96.60
2019-02-26T07:03:31.529Z,96.60
2019-02-26T07:06:04.850Z,96.50
2019-02-26T07:08:34.758Z,96.30
2019-02-26T07:11:08.111Z,96.40
2019-02-26T07:13:41.049Z,96.40
2019-02-26T07:16:11.390Z,96.60
2019-02-26T07:18:42.610Z,96.60
2019-02-26T07:21:15.767Z,96.50
2019-02-26T07:23:46.543Z,96.40
2019-02-26T07:26:18.504Z,96.40
2019-02-26T07:28:51.076Z,96.50
2019-02-26T07:31:24.265Z,96.60
2019-02-26T07:34:02.844Z,96.60
2019-02-26T07:36:33.139Z,96.40
2019-02-26T07:39:06.745Z,96.30
2019-02-26T07:41:38.318Z,96.10
2019-02-26T07:44:15.363Z,96.00
2019-02-26T07:46:44.772Z,95.90
2019-02-26T07:49:16.662Z,95.70
2019-02-26T07:51:47.449Z,95.50
2019-02-26T07:54:18.482Z,95.50
2019-02-26T07:56:50.171Z,95.40
2019-02-26T07:59:27.601Z,95.20
2019-02-26T08:01:54.159Z,95.00
2019-02-26T08:04:24.987Z,94.80
2019-02-26T08:06:57.208Z,94.60
2019-02-26T08:09:28.305Z,94.50
2019-02-26T08:11:59.132Z,94.60
2019-02-26T08:14:29.924Z,93.90
2019-02-26T08:17:02.057Z,93.40
2019-02-26T08:19:39.280Z,93.10
2019-02-26T08:22:09.846Z,92.90
2019-02-26T08:24:40.670Z,92.90
2019-02-26T08:27:13.424Z,92.50
2019-02-26T08:29:44.035Z,91.80
2019-02-26T08:32:18.121Z,91.10
2019-02-26T08:34:47.431Z,90.20
2019-02-26T08:37:18.185Z,86.90
2019-02-26T08:39:48.975Z,85.50
2019-02-26T08:42:19.773Z,82.60
2019-02-26T08:44:51.222Z,83.50
2019-02-26T08:47:23.621Z,82.40
2019-02-26T08:49:54.494Z,78.10
2019-02-26T08:52:27.458Z,80.50
2019-02-26T08:54:57.875Z,78.50
2019-02-26T08:57:40.630Z,77.60
2019-02-26T09:00:14.261Z,77.20
2019-02-26T09:02:46.101Z,73.40
2019-02-26T09:05:17.757Z,73.80
2019-02-26T09:07:50.595Z,70.00
2019-02-26T09:10:23.270Z,73.30
2019-02-26T09:12:53.748Z,70.70
2019-02-26T09:15:24.588Z,68.80
2019-02-26T09:17:55.428Z,67.20
2019-02-26T09:20:26.280Z,66.80
2019-02-26T09:22:59.524Z,68.80
2019-02-26T09:25:33.977Z,67.80
2019-02-26T09:28:04.862Z,65.30
2019-02-26T09:30:36.480Z,65.20
2019-02-26T09:33:16.365Z,64.20
2019-02-26T09:35:49.721Z,62.70
2019-02-26T09:38:22.499Z,62.90
2019-02-26T09:40:54.157Z,60.00
2019-02-26T09:43:24.835Z,62.40
2019-02-26T09:45:55.741Z,60.50
2019-02-26T09:48:26.569Z,60.30
2019-02-26T09:50:57.367Z,63.80
2019-02-26T09:53:28.162Z,62.30
2019-02-26T09:55:58.970Z,61.10
2019-02-26T09:58:29.812Z,60.90
2019-02-26T10:01:00.626Z,61.70
2019-02-26T10:03:36.758Z,59.90
2019-02-26T10:06:05.824Z,60.60
2019-02-26T10:08:36.595Z,60.30
2019-02-26T10:11:07.467Z,59.30
2019-02-26T10:13:39.650Z,59.40
2019-02-26T10:16:13.074Z,58.50
2019-02-26T10:18:45.022Z,57.90
2019-02-26T10:21:18.292Z,58.10
2019-02-26T10:23:51.467Z,58.30
2019-02-26T10:26:21.527Z,57.10
2019-02-26T10:28:57.869Z,57.10
2019-02-26T10:31:26.747Z,55.50
2019-02-26T10:33:57.262Z,55.50
2019-02-26T10:36:32.453Z,56.00
2019-02-26T10:39:02.750Z,54.70
2019-02-26T10:41:36.847Z,55.20
2019-02-26T10:44:08.332Z,53.90
2019-02-26T10:46:41.776Z,54.20
2019-02-26T10:49:12.446Z,54.60
2019-02-26T10:51:43.462Z,51.10
2019-02-26T10:54:17.941Z,51.20
2019-02-26T10:56:48.322Z,51.90
2019-02-26T10:59:19.744Z,50.30
2019-02-26T11:01:54.739Z,50.40
2019-02-26T11:04:34.237Z,51.20
2019-02-26T11:06:59.106Z,51.00
2019-02-26T11:09:31.894Z,50.40
2019-02-26T11:12:05.146Z,49.50
2019-02-26T11:14:37.233Z,48.50
2019-02-26T11:17:08.347Z,49.80
2019-02-26T11:19:41.728Z,47.20
2019-02-26T11:22:11.513Z,47.50
2019-02-26T11:24:42.257Z,46.60
2019-02-26T11:27:13.072Z,46.50
2019-02-26T11:29:43.943Z,47.60
2019-02-26T11:32:15.532Z,46.80
2019-02-26T11:34:46.364Z,47.20
2019-02-26T11:37:17.466Z,47.10
2019-02-26T11:39:48.552Z,46.40
2019-02-26T11:42:21.193Z,45.50
2019-02-26T11:44:51.933Z,43.70
2019-02-26T11:47:23.030Z,42.40
2019-02-26T11:49:59.508Z,41.00
2019-02-26T11:52:30.925Z,40.30
2019-02-26T11:55:05.769Z,39.40
2019-02-26T11:57:37.664Z,36.90
2019-02-26T12:00:15.090Z,35.00
2019-02-26T12:02:45.558Z,34.70
2019-02-26T12:05:16.388Z,33.60
2019-02-26T12:07:48.732Z,32.90
2019-02-26T12:10:19.695Z,32.30
2019-02-26T12:12:56.828Z,33.30
2019-02-26T12:15:30.131Z,32.10
2019-02-26T12:18:00.770Z,31.30
2019-02-26T12:20:32.071Z,31.20
2019-02-26T12:23:02.882Z,31.50
2019-02-26T12:25:33.735Z,31.30
2019-02-26T12:28:05.397Z,30.20
2019-02-26T12:30:37.564Z,30.60
2019-02-26T12:33:11.943Z,29.50
2019-02-26T12:35:43.688Z,29.60
2019-02-26T12:38:20.642Z,29.00
2019-02-26T12:40:49.929Z,29.20
2019-02-26T12:43:19.703Z,28.00
2019-02-26T12:45:52.078Z,27.10
2019-02-26T12:48:24.549Z,26.90
2019-02-26T12:50:57.757Z,26.80
2019-02-26T12:53:27.966Z,26.10
2019-02-26T12:56:01.945Z,27.60
2019-02-26T12:58:31.210Z,26.50
2019-02-26T13:01:02.082Z,27.50
2019-02-26T13:03:38.099Z,27.50
2019-02-26T13:06:10.033Z,27.30
2019-02-26T13:08:39.790Z,26.10
2019-02-26T13:11:13.980Z,25.60
2019-02-26T13:13:45.227Z,26.00
2019-02-26T13:16:17.250Z,26.20
2019-02-26T13:18:51.245Z,26.00
2019-02-26T13:21:20.672Z,25.10
2019-02-26T13:23:52.554Z,24.60
2019-02-26T13:26:23.422Z,25.20
2019-02-26T13:28:56.147Z,25.60
2019-02-26T13:31:28.371Z,26.70
2019-02-26T13:33:59.172Z,27.50
2019-02-26T13:36:29.906Z,25.80
2019-02-26T13:39:00.758Z,26.00
2019-02-26T13:41:38.716Z,26.50
2019-02-26T13:44:07.572Z,26.30
2019-02-26T13:46:38.429Z,26.60
2019-02-26T13:49:09.324Z,25.60
2019-02-26T13:51:40.190Z,25.20
2019-02-26T13:54:11.430Z,24.60
2019-02-26T13:56:42.332Z,24.30
2019-02-26T13:59:14.970Z,25.20
2019-02-26T14:01:45.848Z,25.70
2019-02-26T14:04:16.764Z,26.10
2019-02-26T14:06:47.616Z,26.20
2019-02-26T14:09:18.578Z,25.50
2019-02-26T14:11:49.422Z,25.50
2019-02-26T14:14:20.242Z,25.40
2019-02-26T14:16:51.003Z,25.30
2019-02-26T14:19:21.841Z,24.60
2019-02-26T14:21:52.541Z,24.90
2019-02-26T14:24:24.451Z,25.50
2019-02-26T14:26:55.604Z,25.90
2019-02-26T14:29:26.571Z,25.90
2019-02-26T14:31:57.270Z,24.40
2019-02-26T14:34:28.134Z,25.30
2019-02-26T14:36:59.261Z,25.50
2019-02-26T14:39:30.027Z,25.30
2019-02-26T14:42:00.810Z,24.30
2019-02-26T14:44:31.686Z,23.50
2019-02-26T14:47:02.582Z,24.30
2019-02-26T14:49:33.277Z,24.80
2019-02-26T14:52:04.075Z,25.70
2019-02-26T14:54:36.170Z,26.10
2019-02-26T14:57:07.019Z,25.50
2019-02-26T14:59:39.113Z,25.90
2019-02-26T15:02:13.402Z,26.90
2019-02-26T15:04:42.433Z,27.50
2019-02-26T15:07:13.214Z,29.40
2019-02-26T15:09:44.014Z,29.80
2019-02-26T15:12:15.550Z,28.90
2019-02-26T15:14:48.739Z,28.80
2019-02-26T15:17:18.891Z,28.10
2019-02-26T15:19:53.142Z,28.40
2019-02-26T15:22:22.265Z,28.70
2019-02-26T15:24:53.097Z,27.20
2019-02-26T15:27:23.966Z,27.00
2019-02-26T15:29:54.766Z,26.80
2019-02-26T15:32:25.810Z,26.50
2019-02-26T15:34:56.572Z,26.10
2019-02-26T15:37:27.311Z,26.50
2019-02-26T15:39:58.430Z,26.50
2019-02-26T15:42:31.165Z,26.80
2019-02-26T15:45:04.782Z,26.80
2019-02-26T15:47:35.561Z,27.10
2019-02-26T15:50:08.973Z,28.00
2019-02-26T15:52:40.022Z,27.50
2019-02-26T15:55:13.547Z,28.10
2019-02-26T15:57:44.526Z,28.40
2019-02-26T16:00:18.085Z,29.10
2019-02-26T16:02:51.434Z,29.20
2019-02-26T16:05:23.290Z,29.80
2019-02-26T16:07:54.146Z,30.90
2019-02-26T16:10:26.058Z,35.00
2019-02-26T16:13:04.402Z,38.40
2019-02-26T16:15:35.749Z,40.30
2019-02-26T16:18:06.604Z,43.00
2019-02-26T16:20:59.986Z,44.00
2019-02-26T16:23:31.034Z,45.50
2019-02-26T16:26:05.638Z,46.50
2019-02-26T16:28:36.341Z,49.00
2019-02-26T16:31:07.217Z,47.50
2019-02-26T16:33:38.000Z,50.20
2019-02-26T16:36:09.056Z,50.70
2019-02-26T16:38:39.886Z,52.00
2019-02-26T16:41:11.655Z,53.30
2019-02-26T16:43:43.275Z,56.00
2019-02-26T16:46:14.317Z,57.60
2019-02-26T16:48:45.626Z,59.10
2019-02-26T16:51:20.884Z,60.90
2019-02-26T16:53:50.849Z,61.20
2019-02-26T16:56:22.373Z,62.10
2019-02-26T16:58:53.302Z,62.60
2019-02-26T17:01:24.060Z,63.60
2019-02-26T17:03:56.073Z,64.80
2019-02-26T17:06:27.022Z,65.30
2019-02-26T17:08:57.948Z,66.50
2019-02-26T17:11:32.303Z,66.90
2019-02-26T17:14:03.339Z,67.40
2019-02-26T17:16:35.287Z,68.30
2019-02-26T17:19:06.075Z,68.60
2019-02-26T17:21:36.909Z,69.60
2019-02-26T17:24:08.765Z,70.30
2019-02-26T17:26:39.614Z,70.80
2019-02-26T17:29:10.391Z,70.40
2019-02-26T17:31:41.445Z,71.50
2019-02-26T17:34:12.218Z,72.50
2019-02-26T17:36:42.998Z,73.10
2019-02-26T17:39:13.750Z,74.10
2019-02-26T17:41:44.816Z,74.70
2019-02-26T17:44:16.062Z,75.70
2019-02-26T17:46:47.625Z,76.10
2019-02-26T17:49:18.412Z,76.40
2019-02-26T17:51:49.177Z,76.10
2019-02-26T17:54:20.099Z,76.30
2019-02-26T17:56:50.931Z,76.60
2019-02-26T17:59:22.735Z,77.10
2019-02-26T18:01:53.491Z,77.60
2019-02-26T18:04:24.378Z,78.00
2019-02-26T18:06:55.421Z,78.20
2019-02-26T18:09:26.273Z,78.90
2019-02-26T18:11:57.057Z,79.40
2019-02-26T18:14:27.822Z,79.10
2019-02-26T18:16:58.620Z,79.30
2019-02-26T18:19:29.404Z,80.10
2019-02-26T18:22:01.727Z,78.90
2019-02-26T18:24:32.478Z,80.00
2019-02-26T18:27:03.672Z,80.60
2019-02-26T18:29:34.638Z,81.70
2019-02-26T18:32:05.528Z,82.30
2019-02-26T18:34:36.394Z,82.10
2019-02-26T18:37:07.251Z,81.60
2019-02-26T18:39:38.343Z,82.80
2019-02-26T18:42:10.503Z,83.30
2019-02-26T18:44:41.337Z,83.30
2019-02-26T18:47:13.066Z,83.50
2019-02-26T18:49:43.926Z,83.30
2019-02-26T18:52:14.832Z,84.10
2019-02-26T18:54:45.684Z,84.50
2019-02-26T18:57:16.583Z,85.70
2019-02-26T18:59:47.345Z,85.10
2019-02-26T19:02:18.275Z,85.50
2019-02-26T19:04:49.288Z,85.20
2019-02-26T19:07:20.177Z,85.60
2019-02-26T19:09:51.072Z,85.60
2019-02-26T19:12:21.974Z,85.40
2019-02-26T19:14:53.015Z,85.90
2019-02-26T19:17:26.581Z,86.30
2019-02-26T19:20:12.772Z,87.80
2019-02-26T19:22:44.149Z,87.30
2019-02-26T19:25:14.955Z,86.50
2019-02-26T19:27:52.818Z,87.10
2019-02-26T19:30:21.574Z,87.20
2019-02-26T19:32:52.464Z,87.60
2019-02-26T19:35:38.188Z,87.80
2019-02-26T19:38:08.642Z,88.30
2019-02-26T19:40:46.130Z,88.40
2019-02-26T19:43:17.046Z,87.70
2019-02-26T19:45:52.596Z,89.00
2019-02-26T19:48:23.858Z,89.50
2019-02-26T19:50:54.767Z,88.70
2019-02-26T19:53:25.581Z,89.30
2019-02-26T19:55:56.382Z,88.90
2019-02-26T19:58:27.190Z,89.50
2019-02-26T20:00:58.029Z,90.00
2019-02-26T20:03:39.309Z,90.00
2019-02-26T20:06:01.382Z,90.00
2019-02-26T20:08:32.150Z,90.20
2019-02-26T20:11:02.910Z,90.30
2019-02-26T20:13:34.100Z,90.60
2019-02-26T20:16:05.486Z,90.50
2019-02-26T20:18:36.350Z,90.40
2019-02-26T20:21:07.247Z,90.40
2019-02-26T20:23:41.807Z,90.40
2019-02-26T20:26:16.072Z,90.60
2019-02-26T20:28:44.746Z,90.50
2019-02-26T20:31:15.599Z,90.30
2019-02-26T20:33:46.436Z,90.40
2019-02-26T20:36:17.841Z,90.80
2019-02-26T20:38:49.260Z,91.00
2019-02-26T20:41:22.206Z,90.90
2019-02-26T20:43:52.611Z,90.90
2019-02-26T20:46:25.134Z,90.80
2019-02-26T20:48:55.891Z,91.10
2019-02-26T20:51:27.194Z,90.80
2019-02-26T20:53:58.490Z,91.20
2019-02-26T20:56:30.968Z,91.50
2019-02-26T20:59:04.408Z,91.20
2019-02-26T21:01:35.184Z,91.40
2019-02-26T21:04:07.420Z,91.80
2019-02-26T21:06:39.189Z,91.70
2019-02-26T21:09:13.185Z,91.40
2019-02-26T21:11:44.078Z,91.60
2019-02-26T21:14:15.281Z,91.90
2019-02-26T21:16:47.109Z,92.00
2019-02-26T21:19:17.911Z,92.00
2019-02-26T21:21:49.116Z,92.10
2019-02-26T21:24:20.364Z,91.90
2019-02-26T21:26:52.835Z,92.00
2019-02-26T21:29:23.708Z,92.00
2019-02-26T21:31:54.571Z,92.00
2019-02-26T21:34:25.282Z,91.90
2019-02-26T21:36:57.878Z,91.80
2019-02-26T21:39:29.700Z,91.90
2019-02-26T21:42:00.490Z,92.10
2019-02-26T21:44:31.296Z,92.10
2019-02-26T21:47:02.144Z,92.30
2019-02-26T21:49:33.945Z,92.50
2019-02-26T21:52:08.785Z,92.40
2019-02-26T21:54:37.930Z,92.50
2019-02-26T21:57:08.723Z,92.60
2019-02-26T21:59:49.676Z,92.60
2019-02-26T22:02:13.627Z,92.60
2019-02-26T22:04:44.501Z,92.50
2019-02-26T22:07:19.179Z,92.60
2019-02-26T22:09:51.828Z,93.00
2019-02-26T22:12:24.213Z,93.10
2019-02-26T22:14:55.522Z,93.00
2019-02-26T22:17:27.239Z,93.20
2019-02-26T22:19:58.378Z,93.00
2019-02-26T22:22:30.441Z,93.20
2019-02-26T22:25:09.607Z,93.30
2019-02-26T22:27:36.681Z,93.40
2019-02-26T22:30:09.389Z,93.40
2019-02-26T22:32:40.139Z,93.50
2019-02-26T22:35:11.206Z,93.40
2019-02-26T22:37:42.158Z,93.30
2019-02-26T22:40:13.077Z,93.30
2019-02-26T22:42:44.248Z,93.20
2019-02-26T22:45:16.083Z,93.40
2019-02-26T22:47:51.386Z,93.30
2019-02-26T22:50:22.172Z,93.20
2019-02-26T22:52:52.986Z,93.30
2019-02-26T22:55:23.794Z,93.30
2019-02-26T22:57:54.599Z,93.30
2019-02-26T23:00:58.336Z,93.70
2019-02-26T23:03:31.043Z,93.70
2019-02-26T23:06:02.008Z,93.70
2019-02-26T23:08:33.109Z,93.70
2019-02-26T23:11:03.924Z,93.60
2019-02-26T23:13:35.016Z,93.80
2019-02-26T23:16:06.125Z,94.20
2019-02-26T23:18:37.168Z,94.10
2019-02-26T23:21:08.174Z,94.00
2019-02-26T23:23:39.350Z,94.00
2019-02-26T23:26:10.532Z,94.10
2019-02-26T23:28:41.934Z,94.10
2019-02-26T23:31:13.164Z,94.30
2019-02-26T23:33:47.798Z,94.30
2019-02-26T23:36:16.482Z,94.30
2019-02-26T23:38:47.841Z,94.60
2019-02-26T23:41:18.583Z,94.50
2019-02-26T23:43:49.346Z,94.50
2019-02-26T23:46:20.170Z,94.50
2019-02-26T23:48:50.921Z,94.40
2019-02-26T23:51:21.695Z,94.40
2019-02-26T23:53:52.484Z,94.70
2019-02-26T23:56:23.330Z,94.60
2019-02-26T23:58:55.734Z,94.60
